createdAt,value
2023-01-17T00:02:19.586Z,99302.63
2023-01-17T00:05:40.014Z,99307.78
2023-01-17T00:09:00.125Z,99305.78
2023-01-17T00:12:02.518Z,99305.03
2023-01-17T00:15:05.524Z,99304.59
2023-01-17T00:18:07.308Z,99307.25
2023-01-17T00:21:27.788Z,99301.75
2023-01-17T00:24:48.558Z,99299.94
2023-01-17T00:27:50.409Z,99293.72
2023-01-17T00:30:52.700Z,99290.13
2023-01-17T00:33:54.503Z,99302.78
2023-01-17T00:36:56.345Z,99293.16
2023-01-17T00:39:58.228Z,99297.59
2023-01-17T00:43:18.653Z,99290.81
2023-01-17T00:46:39.415Z,99305.59
2023-01-17T00:50:00.076Z,99288.56
2023-01-17T00:53:23.975Z,99284.13
2023-01-17T00:56:44.381Z,99284.13
2023-01-17T01:00:04.821Z,99275.13
2023-01-17T01:03:29.541Z,99264.28
2023-01-17T01:06:50.339Z,99265.50
2023-01-17T01:10:10.681Z,99268.38
2023-01-17T01:13:31.021Z,99263.09
2023-01-17T01:16:51.687Z,99267.19
2023-01-17T01:20:12.298Z,99268.66
2023-01-17T01:23:33.024Z,99276.25
2023-01-17T01:26:53.169Z,99262.19
2023-01-17T01:30:13.513Z,99265.78
2023-01-17T01:33:21.500Z,99264.00
2023-01-17T01:36:23.477Z,99264.84
2023-01-17T01:39:25.357Z,99268.31
2023-01-17T01:42:27.309Z,99265.69
2023-01-17T01:45:32.260Z,99258.47
2023-01-17T01:48:38.428Z,99273.00
2023-01-17T01:51:43.360Z,99273.50
2023-01-17T01:54:53.409Z,99268.00
2023-01-17T01:57:58.779Z,99276.13
2023-01-17T02:01:00.953Z,99272.66
2023-01-17T02:04:04.198Z,99268.44
2023-01-17T02:07:15.429Z,99264.22
2023-01-17T02:10:17.470Z,99263.25
2023-01-17T02:13:20.881Z,99266.03
2023-01-17T02:16:25.705Z,99255.22
2023-01-17T02:19:39.902Z,99251.00
2023-01-17T02:23:09.520Z,99260.75
2023-01-17T02:26:20.523Z,99256.28
2023-01-17T02:29:32.556Z,99262.53
2023-01-17T02:32:54.212Z,99253.53
2023-01-17T02:36:07.856Z,99254.22
2023-01-17T02:39:30.119Z,99245.22
2023-01-17T02:42:40.441Z,99252.66
2023-01-17T02:45:42.938Z,99241.00
2023-01-17T02:48:46.389Z,99242.69
2023-01-17T02:52:18.579Z,99245.34
2023-01-17T02:55:42.270Z,99245.56
2023-01-17T02:59:21.128Z,99236.78
2023-01-17T03:02:31.476Z,99235.50
2023-01-17T03:06:12.619Z,99229.38
2023-01-17T03:09:17.275Z,99231.91
2023-01-17T03:12:23.122Z,99239.31
2023-01-17T03:15:25.059Z,99232.00
2023-01-17T03:18:27.318Z,99231.50
2023-01-17T03:21:29.428Z,99225.50
2023-01-17T03:24:31.315Z,99229.81
2023-01-17T03:27:33.325Z,99231.00
2023-01-17T03:30:35.336Z,99222.69
2023-01-17T03:33:37.238Z,99228.38
2023-01-17T03:36:39.182Z,99225.00
2023-01-17T03:39:41.161Z,99224.44
2023-01-17T03:42:43.300Z,99231.63
2023-01-17T03:45:45.333Z,99222.00
2023-01-17T03:48:47.543Z,99218.53
2023-01-17T03:51:49.457Z,99223.19
2023-01-17T03:54:51.509Z,99225.44
2023-01-17T03:57:53.369Z,99221.97
2023-01-17T04:00:55.329Z,99219.72
2023-01-17T04:03:57.258Z,99210.00
2023-01-17T04:06:59.198Z,99216.56
2023-01-17T04:10:01.090Z,99215.38
2023-01-17T04:13:02.968Z,99213.59
2023-01-17T04:16:06.223Z,99209.47
2023-01-17T04:19:12.558Z,99207.69
2023-01-17T04:22:14.537Z,99207.56
2023-01-17T04:25:16.437Z,99210.78
2023-01-17T04:28:18.274Z,99212.56
2023-01-17T04:31:20.278Z,99214.72
2023-01-17T04:34:22.325Z,99212.69
2023-01-17T04:37:24.290Z,99209.22
2023-01-17T04:40:26.630Z,99199.09
2023-01-17T04:43:28.506Z,99188.75
2023-01-17T04:46:30.652Z,99187.28
2023-01-17T04:49:32.557Z,99192.78
2023-01-17T04:52:34.483Z,99198.91
2023-01-17T04:55:36.390Z,99196.94
2023-01-17T04:58:38.352Z,99195.03
2023-01-17T05:01:40.347Z,99195.59
2023-01-17T05:04:42.300Z,99203.00
2023-01-17T05:07:44.151Z,99197.06
2023-01-17T05:10:47.174Z,99204.69
2023-01-17T05:13:49.251Z,99203.63
2023-01-17T05:16:58.736Z,99202.03
2023-01-17T05:20:00.602Z,99201.53
2023-01-17T05:23:02.598Z,99201.44
2023-01-17T05:26:04.531Z,99202.03
2023-01-17T05:29:06.744Z,99195.31
2023-01-17T05:32:09.006Z,99189.06
2023-01-17T05:35:10.917Z,99191.81
2023-01-17T05:38:12.848Z,99188.22
2023-01-17T05:41:14.796Z,99187.38
2023-01-17T05:44:16.685Z,99181.56
2023-01-17T05:47:18.539Z,99183.47
2023-01-17T05:50:26.270Z,99177.34
2023-01-17T05:53:28.442Z,99181.44
2023-01-17T05:56:30.377Z,99179.75
2023-01-17T05:59:37.437Z,99173.81
2023-01-17T06:02:40.295Z,99183.25
2023-01-17T06:05:43.105Z,99171.41
2023-01-17T06:08:45.026Z,99166.72
2023-01-17T06:11:46.966Z,99168.88
2023-01-17T06:14:48.940Z,99158.94
2023-01-17T06:17:50.832Z,99158.31
2023-01-17T06:20:54.791Z,99157.75
2023-01-17T06:23:56.707Z,99147.31
2023-01-17T06:26:58.667Z,99140.72
2023-01-17T06:30:00.582Z,99137.25
2023-01-17T06:33:02.647Z,99133.03
2023-01-17T06:36:05.007Z,99136.69
2023-01-17T06:39:07.252Z,99133.81
2023-01-17T06:42:09.169Z,99146.56
2023-01-17T06:45:11.615Z,99133.34
2023-01-17T06:48:13.716Z,99136.25
2023-01-17T06:51:16.125Z,99131.94
2023-01-17T06:54:18.985Z,99121.28
2023-01-17T06:57:20.908Z,99115.50
2023-01-17T07:00:23.137Z,99113.72
2023-01-17T07:03:27.356Z,99102.91
2023-01-17T07:06:29.365Z,99096.56
2023-01-17T07:09:32.226Z,99092.84
2023-01-17T07:12:34.143Z,99097.88
2023-01-17T07:15:36.093Z,99072.91
2023-01-17T07:18:38.071Z,99068.84
2023-01-17T07:21:40.512Z,99066.44
2023-01-17T07:24:42.438Z,99062.50
2023-01-17T07:27:45.732Z,99048.19
2023-01-17T07:30:48.071Z,99048.69
2023-01-17T07:33:49.970Z,99061.66
2023-01-17T07:36:51.996Z,99056.50
2023-01-17T07:39:54.636Z,99049.28
2023-01-17T07:43:02.495Z,99065.25
2023-01-17T07:46:08.075Z,99071.50
2023-01-17T07:49:10.073Z,99084.72
2023-01-17T07:52:12.095Z,99088.69
2023-01-17T07:55:14.126Z,99104.19
2023-01-17T07:58:16.116Z,99101.66
2023-01-17T08:01:18.167Z,99097.94
2023-01-17T08:04:20.191Z,99097.84
2023-01-17T08:07:22.091Z,99088.94
2023-01-17T08:10:24.048Z,99101.91
2023-01-17T08:13:25.892Z,99091.94
2023-01-17T08:16:28.866Z,99094.81
2023-01-17T08:19:30.641Z,99083.88
2023-01-17T08:22:32.606Z,99103.47
2023-01-17T08:25:35.417Z,99104.69
2023-01-17T08:28:37.397Z,99100.81
2023-01-17T08:31:39.331Z,99097.59
2023-01-17T08:34:41.392Z,99098.56
2023-01-17T08:37:43.370Z,99102.38
2023-01-17T08:40:45.216Z,99107.69
2023-01-17T08:43:48.272Z,99109.59
2023-01-17T08:46:50.232Z,99114.31
2023-01-17T08:49:52.731Z,99124.88
2023-01-17T08:53:03.474Z,99115.16
2023-01-17T08:56:05.881Z,99096.97
2023-01-17T08:59:07.759Z,99100.34
2023-01-17T09:02:15.033Z,99111.41
2023-01-17T09:05:16.993Z,99117.91
2023-01-17T09:08:18.863Z,99123.06
2023-01-17T09:11:20.810Z,99123.06
2023-01-17T09:14:22.719Z,99122.69
2023-01-17T09:17:24.780Z,99119.31
2023-01-17T09:20:30.173Z,99136.09
2023-01-17T09:23:32.137Z,99136.56
2023-01-17T09:26:35.535Z,99145.34
2023-01-17T09:29:37.363Z,99143.31
2023-01-17T09:32:39.294Z,99136.34
2023-01-17T09:35:41.369Z,99129.09
2023-01-17T09:38:43.687Z,99127.41
2023-01-17T09:41:51.286Z,99137.00
2023-01-17T09:44:54.234Z,99125.00
2023-01-17T09:47:56.348Z,99118.88
2023-01-17T09:51:03.290Z,99120.19
2023-01-17T09:54:05.730Z,99108.78
2023-01-17T09:57:19.088Z,99106.25
2023-01-17T10:00:35.796Z,99103.81
2023-01-17T10:03:37.776Z,99098.06
2023-01-17T10:07:11.398Z,99097.34
2023-01-17T10:10:36.227Z,99087.72
2023-01-17T10:13:43.220Z,99084.38
2023-01-17T10:17:03.854Z,99075.25
2023-01-17T10:20:15.285Z,99076.72
2023-01-17T10:23:38.303Z,99063.25
2023-01-17T10:26:40.268Z,99062.66
2023-01-17T10:29:44.745Z,99048.88
2023-01-17T10:32:49.526Z,99040.94
2023-01-17T10:36:07.826Z,99041.56
2023-01-17T10:39:24.868Z,99027.16
2023-01-17T10:42:35.872Z,99025.81
2023-01-17T10:45:45.068Z,99028.84
2023-01-17T10:48:50.926Z,99017.53
2023-01-17T10:52:00.429Z,99020.06
2023-01-17T10:55:23.857Z,99026.22
2023-01-17T10:58:25.907Z,99020.09
2023-01-17T11:01:28.025Z,99029.69
2023-01-17T11:04:36.711Z,99029.31
2023-01-17T11:07:40.140Z,99037.63
2023-01-17T11:11:04.424Z,99020.69
2023-01-17T11:14:17.495Z,99021.41
2023-01-17T11:17:20.050Z,99013.59
2023-01-17T11:20:39.853Z,99011.91
2023-01-17T11:23:45.603Z,99016.72
2023-01-17T11:26:49.609Z,99011.44
2023-01-17T11:30:18.111Z,99014.69
2023-01-17T11:33:35.432Z,99021.16
2023-01-17T11:36:37.388Z,99020.31
2023-01-17T11:39:39.389Z,99019.72
2023-01-17T11:42:41.327Z,99016.00
2023-01-17T11:45:43.289Z,99010.59
2023-01-17T11:49:01.471Z,98997.25
2023-01-17T11:52:39.152Z,99003.28
2023-01-17T11:56:12.055Z,98997.88
2023-01-17T11:59:26.309Z,99000.03
2023-01-17T12:02:49.771Z,98991.63
2023-01-17T12:05:53.649Z,98993.53
2023-01-17T12:09:13.797Z,98989.22
2023-01-17T12:13:19.668Z,98978.63
2023-01-17T12:16:33.504Z,98969.28
2023-01-17T12:19:42.391Z,98964.00
2023-01-17T12:23:06.480Z,98970.13
2023-01-17T12:26:35.212Z,98958.81
2023-01-17T12:29:40.095Z,98954.72
2023-01-17T12:33:03.729Z,98948.38
2023-01-17T12:36:17.781Z,98953.03
2023-01-17T12:39:26.204Z,98946.53
2023-01-17T12:42:33.235Z,98941.03
2023-01-17T12:45:42.779Z,98931.16
2023-01-17T12:48:45.245Z,98942.56
2023-01-17T12:51:53.203Z,98933.03
2023-01-17T12:55:05.728Z,98923.56
2023-01-17T12:58:24.918Z,98920.66
2023-01-17T13:01:32.260Z,98942.28
2023-01-17T13:04:58.047Z,98937.38
2023-01-17T13:08:09.481Z,98948.28
2023-01-17T13:11:27.953Z,98955.38
2023-01-17T13:14:30.078Z,98949.34
2023-01-17T13:17:45.010Z,98963.03
2023-01-17T13:20:53.818Z,98961.09
2023-01-17T13:24:06.021Z,98955.34
2023-01-17T13:27:25.418Z,98966.28
2023-01-17T13:30:57.410Z,98953.16
2023-01-17T13:34:08.350Z,98944.78
2023-01-17T13:37:10.268Z,98938.00
2023-01-17T13:40:53.605Z,98946.41
2023-01-17T13:44:14.297Z,98930.22
2023-01-17T13:47:19.003Z,98933.44
2023-01-17T13:50:42.138Z,98924.88
2023-01-17T13:53:43.983Z,98919.19
2023-01-17T13:56:45.880Z,98934.81
2023-01-17T13:59:47.871Z,98930.94
2023-01-17T14:02:51.822Z,98930.50
2023-01-17T14:05:57.174Z,98924.75
2023-01-17T14:09:08.086Z,98930.25
2023-01-17T14:12:14.177Z,98914.63
2023-01-17T14:15:27.177Z,98921.22
2023-01-17T14:18:32.136Z,98937.22
2023-01-17T14:21:35.658Z,98917.59
2023-01-17T14:25:20.179Z,98917.34
2023-01-17T14:28:23.223Z,98919.16
2023-01-17T14:31:26.368Z,98921.22
2023-01-17T14:34:28.752Z,98924.69
2023-01-17T14:37:38.761Z,98920.81
2023-01-17T14:40:40.722Z,98909.00
2023-01-17T14:43:43.624Z,98910.38
2023-01-17T14:46:48.889Z,98914.94
2023-01-17T14:50:12.079Z,98915.41
2023-01-17T14:53:13.947Z,98915.72
2023-01-17T15:21:59.780Z,98918.25
2023-01-17T15:25:02.687Z,98918.25
2023-01-17T15:28:05.641Z,98932.00
2023-01-17T15:31:47.490Z,98917.06
2023-01-17T15:34:51.223Z,98927.41
2023-01-17T15:37:54.939Z,98917.59
2023-01-17T15:41:09.069Z,98906.59
2023-01-17T15:44:42.704Z,98920.03
2023-01-17T15:47:49.224Z,98929.53
2023-01-17T15:50:58.974Z,98929.25
2023-01-17T15:54:20.866Z,98948.66
2023-01-17T15:57:37.196Z,98914.78
2023-01-17T16:00:39.662Z,98935.00
2023-01-17T16:03:54.107Z,98908.91
2023-01-17T16:07:09.365Z,98913.56
2023-01-17T16:10:23.111Z,98887.91
2023-01-17T16:13:29.786Z,98892.50
2023-01-17T16:16:31.893Z,98894.16
2023-01-17T16:19:34.908Z,98895.59
2023-01-17T16:22:36.710Z,98900.44
2023-01-17T16:25:39.150Z,98895.84
2023-01-17T16:28:41.065Z,98889.31
2023-01-17T16:31:42.984Z,98888.44
2023-01-17T16:34:44.856Z,98886.63
2023-01-17T16:37:55.512Z,98900.03
2023-01-17T16:40:57.485Z,98896.69
2023-01-17T16:44:05.013Z,98888.44
2023-01-17T16:47:06.946Z,98888.59
2023-01-17T16:50:12.298Z,98869.22
2023-01-17T16:53:15.300Z,98868.13
2023-01-17T16:56:17.995Z,98880.66
2023-01-17T16:59:20.062Z,98874.38
2023-01-17T17:02:23.228Z,98873.41
2023-01-17T17:05:26.648Z,98879.16
2023-01-17T17:08:29.599Z,98883.63
2023-01-17T17:11:31.743Z,98887.97
2023-01-17T17:14:33.729Z,98881.84
2023-01-17T17:17:36.743Z,98885.47
2023-01-17T17:20:38.520Z,98888.81
2023-01-17T17:23:40.371Z,98876.13
2023-01-17T17:26:42.409Z,98874.31
2023-01-17T17:29:44.375Z,98877.69
2023-01-17T17:32:47.727Z,98888.84
2023-01-17T17:35:49.673Z,98876.84
2023-01-17T17:38:54.758Z,98871.41
2023-01-17T17:41:56.666Z,98873.19
2023-01-17T17:44:58.591Z,98881.72
2023-01-17T17:48:00.525Z,98879.75
2023-01-17T17:51:02.969Z,98878.22
2023-01-17T17:54:07.751Z,98873.63
2023-01-17T17:57:09.945Z,98887.13
2023-01-17T18:00:12.381Z,98896.06
2023-01-17T18:03:14.725Z,98891.47
2023-01-17T18:06:17.521Z,98886.31
2023-01-17T18:09:19.519Z,98888.38
2023-01-17T18:12:21.463Z,98884.88
2023-01-17T18:15:24.275Z,98878.59
2023-01-17T18:18:26.371Z,98893.78
2023-01-17T18:21:34.466Z,98891.81
2023-01-17T18:24:36.302Z,98887.78
2023-01-17T18:27:39.840Z,98880.78
2023-01-17T18:30:41.680Z,98880.09
2023-01-17T18:33:43.657Z,98874.03
2023-01-17T18:36:45.642Z,98881.59
2023-01-17T18:39:47.598Z,98881.19
2023-01-17T18:42:49.687Z,98875.72
2023-01-17T18:45:54.539Z,98880.19
2023-01-17T18:48:57.296Z,98885.59
2023-01-17T18:52:00.147Z,98891.59
2023-01-17T18:55:02.182Z,98889.22
2023-01-17T18:58:04.118Z,98887.41
2023-01-17T19:01:10.325Z,98888.66
2023-01-17T19:04:13.901Z,98882.91
2023-01-17T19:07:15.990Z,98890.91
2023-01-17T19:10:19.885Z,98890.47
2023-01-17T19:13:21.823Z,98884.44
2023-01-17T19:16:30.061Z,98902.72
2023-01-17T19:19:31.926Z,98902.28
2023-01-17T19:22:33.805Z,98899.25
2023-01-17T19:25:36.420Z,98896.91
2023-01-17T19:28:40.682Z,98900.78
2023-01-17T19:31:43.628Z,98903.31
2023-01-17T19:34:45.648Z,98910.66
2023-01-17T19:37:49.452Z,98908.72
2023-01-17T19:40:51.859Z,98907.19
2023-01-17T19:43:59.818Z,98907.75
2023-01-17T19:47:01.768Z,98919.31
2023-01-17T19:50:08.357Z,98916.69
2023-01-17T19:53:10.263Z,98915.72
2023-01-17T19:56:20.869Z,98912.34
2023-01-17T19:59:22.811Z,98911.38
2023-01-17T20:02:24.914Z,98913.78
2023-01-17T20:05:27.044Z,98919.06
2023-01-17T20:08:29.002Z,98929.91
2023-01-17T20:11:30.960Z,98924.63
2023-01-17T20:14:32.833Z,98925.78
2023-01-17T20:17:34.770Z,98929.41
2023-01-17T20:20:41.362Z,98938.75
2023-01-17T20:23:48.723Z,98941.66
2023-01-17T20:26:51.418Z,98936.06
2023-01-17T20:29:53.431Z,98934.69
2023-01-17T20:32:56.676Z,98942.66
2023-01-17T20:36:10.756Z,98944.44
2023-01-17T20:39:14.766Z,98934.97
2023-01-17T20:42:16.665Z,98940.97
2023-01-17T20:45:18.598Z,98945.28
2023-01-17T20:48:22.434Z,98946.53
2023-01-17T20:51:26.503Z,98937.09
2023-01-17T20:54:28.480Z,98933.59
2023-01-17T20:57:31.409Z,98936.38
2023-01-17T21:00:37.895Z,98946.41
2023-01-17T21:03:40.288Z,98939.81
2023-01-17T21:06:43.697Z,98935.22
2023-01-17T21:09:45.601Z,98934.25
2023-01-17T21:12:47.501Z,98929.22
2023-01-17T21:15:49.911Z,98932.69
2023-01-17T21:18:52.321Z,98932.50
2023-01-17T21:21:56.284Z,98940.78
2023-01-17T21:24:58.887Z,98933.66
2023-01-17T21:28:00.824Z,98939.22
2023-01-17T21:31:20.519Z,98947.56
2023-01-17T21:34:25.288Z,98938.72
2023-01-17T21:37:27.417Z,98944.00
2023-01-17T21:40:29.369Z,98940.59
2023-01-17T21:43:31.389Z,98939.09
2023-01-17T21:46:36.963Z,98946.06
2023-01-17T21:49:38.857Z,98948.34
2023-01-17T21:52:40.835Z,98936.91
2023-01-17T21:56:00.870Z,98938.72
2023-01-17T21:59:02.800Z,98925.91
2023-01-17T22:02:04.802Z,98924.50
2023-01-17T22:05:08.052Z,98917.13
2023-01-17T22:08:12.782Z,98910.84
2023-01-17T22:11:17.549Z,98917.97
2023-01-17T22:14:19.630Z,98920.22
2023-01-17T22:17:21.600Z,98929.97
2023-01-17T22:20:23.971Z,98916.88
2023-01-17T22:23:25.923Z,98913.94
2023-01-17T22:26:31.555Z,98921.50
2023-01-17T22:29:34.065Z,98923.31
2023-01-17T22:32:35.931Z,98920.97
2023-01-17T22:35:37.821Z,98910.50
2023-01-17T22:38:40.812Z,98913.16
2023-01-17T22:41:42.706Z,98917.03
2023-01-17T22:44:44.601Z,98914.84
2023-01-17T22:47:46.541Z,98913.56
2023-01-17T22:50:48.445Z,98908.00
2023-01-17T22:53:52.664Z,98911.09
2023-01-17T22:56:54.631Z,98907.06
2023-01-17T22:59:56.572Z,98903.56
2023-01-17T23:02:59.022Z,98900.38
2023-01-17T23:06:13.842Z,98891.19
2023-01-17T23:09:17.343Z,98891.59
2023-01-17T23:12:19.288Z,98891.59
2023-01-17T23:15:39.547Z,98888.25
2023-01-17T23:19:00.315Z,98879.59
2023-01-17T23:22:16.448Z,98884.19
2023-01-17T23:25:18.416Z,98899.69
2023-01-17T23:28:20.990Z,98907.63
2023-01-17T23:31:23.518Z,98909.31
2023-01-17T23:34:25.522Z,98905.44
2023-01-17T23:37:49.354Z,98901.22
2023-01-17T23:41:20.345Z,98907.81
2023-01-17T23:44:23.563Z,98914.91
2023-01-17T23:47:25.535Z,98913.69
2023-01-17T23:50:27.714Z,98918.44
2023-01-17T23:53:29.667Z,98918.72
2023-01-17T23:56:31.661Z,98912.31
2023-01-17T23:59:33.761Z,98921.53
